Time;durP1;ratioP1;P1;durP2;ratioP2;P2;SDS_P1;SDS_P2;PMS_P1;PMS_P2;Temp;Humidity;BMP_temperature;BMP_pressure;BME280_temperature;BME280_humidity;BME280_pressure;Samples;Min_cycle;Max_cycle;Signal;HPM_P1;HPM_P2
2023/07/10 00:01:41;;;;;;;;;;;24.60;64.70;;;;;;10326500;28;96117;-68
2023/07/10 00:06:43;;;;;;;;;;;24.60;64.70;;;;;;10330166;28;94710;-63
2023/07/10 00:11:45;;;;;;;;;;;24.60;64.70;;;;;;10328462;28;94579;-63
2023/07/10 00:16:47;;;;;;;;;;;24.60;64.60;;;;;;10328857;28;94867;-63
2023/07/10 00:21:49;;;;;;;;;;;24.60;64.60;;;;;;10329024;28;94571;-63
2023/07/10 00:26:51;;;;;;;;;;;24.60;64.50;;;;;;10327347;28;94009;-63
2023/07/10 00:31:52;;;;;;;;;;;24.60;64.40;;;;;;10329226;28;94551;-63
2023/07/10 00:36:54;;;;;;;;;;;24.60;64.40;;;;;;10329096;28;92958;-63
2023/07/10 00:42:00;;;;;;;;;;;24.60;64.30;;;;;;10310574;28;93574;-63
2023/07/10 00:47:13;;;;;;;;;;;24.60;64.30;;;;;;10329164;28;94562;-63
2023/07/10 00:52:22;;;;;;;;;;;24.60;64.30;;;;;;10324380;28;97395;-63
2023/07/10 00:57:33;;;;;;;;;;;24.50;64.20;;;;;;10327772;28;93251;-68
2023/07/10 01:02:35;;;;;;;;;;;24.50;64.10;;;;;;10309186;28;93526;-68
2023/07/10 01:07:41;;;;;;;;;;;24.50;64.10;;;;;;10328450;28;93661;-68
2023/07/10 01:12:44;;;;;;;;;;;24.50;64.00;;;;;;10327717;28;92866;-68
2023/07/10 01:17:47;;;;;;;;;;;24.50;64.00;;;;;;10327298;28;94623;-69
2023/07/10 01:22:49;;;;;;;;;;;24.50;64.00;;;;;;10309878;28;93487;-69
2023/07/10 01:27:50;;;;;;;;;;;24.50;64.00;;;;;;10327678;28;92900;-69
2023/07/10 01:32:54;;;;;;;;;;;24.50;64.00;;;;;;10327096;28;94212;-69
2023/07/10 01:37:56;;;;;;;;;;;24.40;63.90;;;;;;10326266;28;93525;-69
2023/07/10 01:42:58;;;;;;;;;;;24.40;63.90;;;;;;10325561;28;96071;-70
2023/07/10 01:48:00;;;;;;;;;;;24.40;63.90;;;;;;10308272;28;93497;-69
2023/07/10 01:53:02;;;;;;;;;;;24.40;63.80;;;;;;10327843;28;94639;-69
2023/07/10 01:58:04;;;;;;;;;;;24.40;63.80;;;;;;10326774;28;93569;-69
2023/07/10 02:03:06;;;;;;;;;;;24.40;63.70;;;;;;10326674;28;94485;-68
2023/07/10 02:08:08;;;;;;;;;;;24.40;63.80;;;;;;10310117;28;92636;-69
2023/07/10 02:13:09;;;;;;;;;;;24.40;63.70;;;;;;10327541;28;94511;-68
2023/07/10 02:18:11;;;;;;;;;;;24.40;63.70;;;;;;10316406;28;93776;-68
2023/07/10 02:23:13;;;;;;;;;;;24.30;63.70;;;;;;10315926;28;93478;-63
2023/07/10 02:28:15;;;;;;;;;;;24.30;63.60;;;;;;10315219;28;93852;-63
2023/07/10 02:33:19;;;;;;;;;;;24.30;63.60;;;;;;10330537;28;96943;-63
2023/07/10 02:38:20;;;;;;;;;;;24.30;63.60;;;;;;10332220;28;94650;-63
2023/07/10 02:43:22;;;;;;;;;;;24.30;63.60;;;;;;10332680;28;93831;-63
2023/07/10 02:48:24;;;;;;;;;;;24.30;63.50;;;;;;10331933;28;93476;-63
2023/07/10 02:53:25;;;;;;;;;;;24.30;63.40;;;;;;10331612;28;93614;-63
2023/07/10 02:58:27;;;;;;;;;;;24.30;63.40;;;;;;10332973;28;94634;-63
2023/07/10 03:03:29;;;;;;;;;;;24.30;63.30;;;;;;10331903;28;93600;-68
2023/07/10 03:08:31;;;;;;;;;;;24.20;63.10;;;;;;10331575;28;93345;-69
2023/07/10 03:13:33;;;;;;;;;;;24.20;63.10;;;;;;10332141;28;94497;-69
2023/07/10 03:18:35;;;;;;;;;;;24.20;63.10;;;;;;10312987;28;93442;-68
2023/07/10 03:23:37;;;;;;;;;;;24.20;62.90;;;;;;10328838;28;96648;-68
2023/07/10 03:28:39;;;;;;;;;;;24.20;62.90;;;;;;10331279;28;95015;-69
2023/07/10 03:33:40;;;;;;;;;;;24.20;62.90;;;;;;10330912;28;94463;-68
2023/07/10 03:38:42;;;;;;;;;;;24.20;62.90;;;;;;10329499;28;94566;-68
2023/07/10 03:43:44;;;;;;;;;;;24.20;62.80;;;;;;10331215;28;93085;-63
2023/07/10 03:48:47;;;;;;;;;;;24.20;62.80;;;;;;10330041;28;94442;-63
2023/07/10 03:53:49;;;;;;;;;;;24.20;62.80;;;;;;10329732;28;93552;-63
2023/07/10 03:58:50;;;;;;;;;;;24.20;62.70;;;;;;10331121;28;92812;-68
2023/07/10 04:03:52;;;;;;;;;;;24.20;62.70;;;;;;10328627;28;94329;-68
2023/07/10 04:08:57;;;;;;;;;;;24.20;62.70;;;;;;10328730;28;93496;-69
2023/07/10 04:13:59;;;;;;;;;;;24.20;62.70;;;;;;10326414;28;96977;-69
2023/07/10 04:19:00;;;;;;;;;;;24.20;62.60;;;;;;10329914;28;94428;-68
2023/07/10 04:24:04;;;;;;;;;;;24.20;62.60;;;;;;10328691;28;93381;-68
2023/07/10 04:29:06;;;;;;;;;;;24.20;62.50;;;;;;10329109;28;93626;-68
2023/07/10 04:34:08;;;;;;;;;;;24.20;62.50;;;;;;10328529;28;92602;-68
2023/07/10 04:39:10;;;;;;;;;;;24.20;62.40;;;;;;10327729;28;95067;-67
2023/07/10 04:44:12;;;;;;;;;;;24.20;62.40;;;;;;10329171;28;93626;-69
2023/07/10 04:49:14;;;;;;;;;;;24.20;62.30;;;;;;10739765;22;95175;-63
2023/07/10 04:54:15;;;;;;;;;;;24.20;62.30;;;;;;10286400;28;93486;-64
2023/07/10 04:59:17;;;;;;;;;;;24.20;62.20;;;;;;10288163;28;93937;-64
2023/07/10 05:04:18;;;;;;;;;;;24.20;62.20;;;;;;10284906;28;94825;-63
2023/07/10 05:09:20;;;;;;;;;;;24.20;63.20;;;;;;10286949;28;94466;-63
2023/07/10 05:14:22;;;;;;;;;;;24.20;62.10;;;;;;10287613;28;93746;-64
2023/07/10 05:19:24;;;;;;;;;;;24.20;62.10;;;;;;10287189;28;94484;-63
2023/07/10 05:24:26;;;;;;;;;;;24.20;62.10;;;;;;10326831;28;93856;-64
2023/07/10 05:29:28;;;;;;;;;;;24.20;62.00;;;;;;10328035;28;94475;-69
2023/07/10 05:34:29;;;;;;;;;;;24.20;62.00;;;;;;10327132;28;93853;-68
2023/07/10 05:39:31;;;;;;;;;;;24.20;62.00;;;;;;10327124;28;93233;-70
2023/07/10 05:44:35;;;;;;;;;;;24.20;61.90;;;;;;10309160;28;93451;-70
2023/07/10 05:49:36;;;;;;;;;;;24.20;61.90;;;;;;10329606;28;94557;-68
2023/07/10 05:54:38;;;;;;;;;;;24.20;61.90;;;;;;10331601;28;97417;-68
2023/07/10 05:59:40;;;;;;;;;;;24.20;61.80;;;;;;10332706;28;94643;-67
2023/07/10 06:04:42;;;;;;;;;;;24.30;61.80;;;;;;10333070;28;93493;-68
2023/07/10 06:09:44;;;;;;;;;;;24.30;61.70;;;;;;10316432;28;93552;-68
2023/07/10 06:14:45;;;;;;;;;;;24.30;61.60;;;;;;10333003;28;94484;-68
2023/07/10 06:19:47;;;;;;;;;;;24.40;61.60;;;;;;10315115;28;94087;-68
2023/07/10 06:24:49;;;;;;;;;;;24.40;61.50;;;;;;10333906;28;93897;-68
2023/07/10 06:29:51;;;;;;;;;;;24.40;61.40;;;;;;10334194;28;93798;-69
2023/07/10 06:34:53;;;;;;;;;;;24.50;61.40;;;;;;10315534;28;93485;-63
2023/07/10 06:40:05;;;;;;;;;;;24.50;61.20;;;;;;10333235;28;94483;-63
2023/07/10 06:45:07;;;;;;;;;;;24.50;61.10;;;;;;10329470;28;96262;-63
2023/07/10 06:50:10;;;;;;;;;;;24.60;61.10;;;;;;10332388;28;93530;-63
2023/07/10 06:55:14;;;;;;;;;;;24.60;61.00;;;;;;10333204;28;96471;-62
2023/07/10 07:00:16;;;;;;;;;;;24.60;60.80;;;;;;10332265;28;93688;-68
2023/07/10 07:05:18;;;;;;;;;;;24.70;60.70;;;;;;10331933;28;93598;-68
2023/07/10 07:10:20;;;;;;;;;;;24.70;60.70;;;;;;10332838;28;93756;-68
2023/07/10 07:15:22;;;;;;;;;;;24.80;60.60;;;;;;10332430;28;94122;-67
2023/07/10 07:20:24;;;;;;;;;;;24.80;60.40;;;;;;10332996;28;92764;-69
2023/07/10 07:25:26;;;;;;;;;;;24.80;60.40;;;;;;10313513;28;92911;-70
2023/07/10 07:30:27;;;;;;;;;;;24.80;60.50;;;;;;10331310;28;94538;-68
2023/07/10 07:35:29;;;;;;;;;;;24.70;60.50;;;;;;10311247;28;96079;-69
2023/07/10 07:40:31;;;;;;;;;;;24.70;60.50;;;;;;10331340;28;93646;-69
2023/07/10 07:45:33;;;;;;;;;;;24.70;60.50;;;;;;10330449;28;94954;-69
2023/07/10 07:50:35;;;;;;;;;;;24.70;60.60;;;;;;10311732;28;93741;-69
2023/07/10 07:55:36;;;;;;;;;;;24.60;60.60;;;;;;10330800;28;94132;-69
2023/07/10 08:00:38;;;;;;;;;;;24.60;60.60;;;;;;10330343;28;92973;-70
2023/07/10 08:05:40;;;;;;;;;;;24.60;60.50;;;;;;10330418;28;94523;-68
2023/07/10 08:10:44;;;;;;;;;;;24.60;60.60;;;;;;10330890;28;93793;-68
2023/07/10 08:15:46;;;;;;;;;;;24.60;60.60;;;;;;10329631;28;93662;-69
2023/07/10 08:20:47;;;;;;;;;;;24.60;60.60;;;;;;10328773;28;93536;-69
2023/07/10 08:25:49;;;;;;;;;;;24.60;60.70;;;;;;10326658;28;96385;-69
2023/07/10 08:30:51;;;;;;;;;;;24.60;60.70;;;;;;10311589;28;93593;-69
2023/07/10 08:36:03;;;;;;;;;;;24.60;60.60;;;;;;10330080;28;94734;-68
2023/07/10 08:41:31;;;;;;;;;;;24.60;60.70;;;;;;10329305;28;92537;-70
2023/07/10 08:46:33;;;;;;;;;;;24.60;60.60;;;;;;10325151;28;93859;-69
2023/07/10 08:51:52;;;;;;;;;;;24.60;60.40;;;;;;10328317;28;94658;-68
2023/07/10 08:56:53;;;;;;;;;;;24.70;60.50;;;;;;10328353;28;93637;-68
2023/07/10 09:01:56;;;;;;;;;;;24.60;60.40;;;;;;10329427;28;93823;-69
2023/07/10 09:06:59;;;;;;;;;;;24.60;60.40;;;;;;10310063;28;93467;-70
2023/07/10 09:12:03;;;;;;;;;;;24.60;60.50;;;;;;10327996;28;93543;-68
2023/07/10 09:17:15;;;;;;;;;;;24.60;60.60;;;;;;10325550;28;97041;-69
2023/07/10 09:22:17;;;;;;;;;;;24.60;60.60;;;;;;10329611;28;94542;-69
2023/07/10 09:27:19;;;;;;;;;;;24.60;60.60;;;;;;10335974;28;93617;-69
2023/07/10 09:32:21;;;;;;;;;;;24.60;60.60;;;;;;10317305;28;93549;-70
2023/07/10 09:37:26;;;;;;;;;;;24.60;60.70;;;;;;10318095;28;94538;-68
2023/07/10 09:42:32;;;;;;;;;;;24.60;60.60;;;;;;10317569;28;93670;-70
2023/07/10 09:47:40;;;;;;;;;;;24.60;60.60;;;;;;10334434;28;93553;-68
2023/07/10 09:52:50;;;;;;;;;;;24.60;60.40;;;;;;10317916;28;93733;-70
2023/07/10 09:57:55;;;;;;;;;;;24.70;60.20;;;;;;10334642;28;94555;-69
2023/07/10 10:03:00;;;;;;;;;;;24.80;60.00;;;;;;10334133;28;93657;-63
2023/07/10 10:08:10;;;;;;;;;;;24.90;59.80;;;;;;10332056;28;95966;-64
2023/07/10 10:13:19;;;;;;;;;;;24.90;59.70;;;;;;10316870;28;94686;-63
2023/07/10 10:18:36;;;;;;;;;;;25.00;59.50;;;;;;10316477;28;93553;-63
2023/07/10 10:23:39;;;;;;;;;;;25.00;59.30;;;;;;10333129;28;93542;-64
2023/07/10 10:28:48;;;;;;;;;;;25.10;59.20;;;;;;10333331;28;94662;-63
2023/07/10 10:33:55;;;;;;;;;;;25.10;59.00;;;;;;10333094;28;93262;-63
2023/07/10 10:39:01;;;;;;;;;;;25.10;58.70;;;;;;10333645;28;94557;-69
2023/07/10 10:44:22;;;;;;;;;;;25.20;58.80;;;;;;10315871;28;93885;-68
2023/07/10 10:49:30;;;;;;;;;;;25.20;58.60;;;;;;10332648;28;93591;-69
2023/07/10 10:54:54;;;;;;;;;;;25.20;58.60;;;;;;10313806;28;114368;-69
2023/07/10 11:00:05;;;;;;;;;;;25.20;58.40;;;;;;10329346;28;97217;-69
2023/07/10 11:05:42;;;;;;;;;;;25.20;58.40;;;;;;10332259;28;93835;-69
2023/07/10 11:10:44;;;;;;;;;;;25.20;58.30;;;;;;10233266;28;94210;-69
2023/07/10 11:15:46;;;;;;;;;;;25.20;58.20;;;;;;10332025;28;93958;-70
2023/07/10 11:20:48;;;;;;;;;;;25.20;58.10;;;;;;10332962;28;94487;-69
2023/07/10 11:25:57;;;;;;;;;;;25.20;57.90;;;;;;10332189;28;94434;-69
2023/07/10 11:31:17;;;;;;;;;;;25.20;57.90;;;;;;10332331;28;93606;-69
2023/07/10 11:36:39;;;;;;;;;;;25.20;57.80;;;;;;10333704;28;93891;-69
2023/07/10 11:41:44;;;;;;;;;;;25.10;57.90;;;;;;10331818;28;93224;-68
2023/07/10 11:47:01;;;;;;;;;;;25.10;57.70;;;;;;10331600;28;94125;-69
2023/07/10 11:52:09;;;;;;;;;;;25.10;57.60;;;;;;10328743;28;95804;-68
2023/07/10 11:57:10;;;;;;;;;;;25.10;57.70;;;;;;10330624;28;94840;-70
2023/07/10 12:02:15;;;;;;;;;;;25.10;57.50;;;;;;10331228;28;94196;-69
2023/07/10 12:07:17;;;;;;;;;;;25.10;57.50;;;;;;10330677;28;94931;-70
2023/07/10 12:12:19;;;;;;;;;;;25.10;57.60;;;;;;10312825;28;94520;-64
2023/07/10 12:17:21;;;;;;;;;;;25.10;57.70;;;;;;10312368;28;93524;-64
2023/07/10 12:22:29;;;;;;;;;;;25.10;57.50;;;;;;10328849;28;94236;-63
2023/07/10 12:27:32;;;;;;;;;;;25.10;57.50;;;;;;10330393;28;93809;-64
2023/07/10 12:32:54;;;;;;;;;;;25.10;58.50;;;;;;10329722;28;95412;-64
2023/07/10 12:37:58;;;;;;;;;;;25.10;57.50;;;;;;10329233;28;94893;-63
2023/07/10 12:43:21;;;;;;;;;;;25.10;57.50;;;;;;10326849;28;97225;-63
2023/07/10 12:48:23;;;;;;;;;;;25.10;57.50;;;;;;10311400;28;94566;-63
2023/07/10 12:53:26;;;;;;;;;;;25.10;57.50;;;;;;10328641;28;93522;-70
2023/07/10 12:58:27;;;;;;;;;;;25.10;57.50;;;;;;10328525;28;93502;-68
2023/07/10 13:03:30;;;;;;;;;;;25.10;57.40;;;;;;10329135;28;94475;-68
2023/07/10 13:08:35;;;;;;;;;;;25.10;57.30;;;;;;10329703;28;93925;-62
2023/07/10 13:13:40;;;;;;;;;;;25.20;57.40;;;;;;10328622;28;92571;-69
2023/07/10 13:18:42;;;;;;;;;;;25.10;57.20;;;;;;10328812;28;93658;-69
2023/07/10 13:23:44;;;;;;;;;;;25.10;57.20;;;;;;10328870;28;94564;-69
2023/07/10 13:28:46;;;;;;;;;;;25.10;57.30;;;;;;10328481;28;94693;-63
2023/07/10 13:33:50;;;;;;;;;;;25.10;57.40;;;;;;10326503;28;97024;-63
2023/07/10 13:38:52;;;;;;;;;;;25.10;57.30;;;;;;10328614;28;94703;-63
2023/07/10 13:43:54;;;;;;;;;;;25.10;57.20;;;;;;10309817;28;93526;-63
2023/07/10 13:48:57;;;;;;;;;;;25.10;57.30;;;;;;10326621;28;94653;-63
2023/07/10 13:53:59;;;;;;;;;;;25.10;57.30;;;;;;10327391;28;94469;-63
2023/07/10 13:59:02;;;;;;;;;;;25.10;57.30;;;;;;10327918;28;93514;-64
2023/07/10 14:04:03;;;;;;;;;;;25.10;57.30;;;;;;10326506;28;94446;-64
2023/07/10 14:09:10;;;;;;;;;;;25.10;57.40;;;;;;10329159;28;92853;-63
2023/07/10 14:14:12;;;;;;;;;;;25.00;57.40;;;;;;10315329;28;93814;-64
2023/07/10 14:19:16;;;;;;;;;;;25.00;57.50;;;;;;10333293;28;93389;-63
2023/07/10 14:24:18;;;;;;;;;;;25.00;57.50;;;;;;10330906;28;96950;-63
2023/07/10 14:29:20;;;;;;;;;;;25.00;57.50;;;;;;10333705;28;93451;-69
2023/07/10 14:34:22;;;;;;;;;;;25.00;57.50;;;;;;10333710;28;94917;-69
2023/07/10 14:39:23;;;;;;;;;;;25.00;57.50;;;;;;10332539;28;93553;-68
2023/07/10 14:44:25;;;;;;;;;;;25.00;57.30;;;;;;10314635;28;93827;-68
2023/07/10 14:49:26;;;;;;;;;;;25.00;57.40;;;;;;10332812;28;93681;-69
2023/07/10 14:54:28;;;;;;;;;;;25.00;57.40;;;;;;10332111;28;94501;-68
2023/07/10 14:59:30;;;;;;;;;;;25.00;57.30;;;;;;10315565;28;94138;-70
2023/07/10 15:04:32;;;;;;;;;;;25.00;57.20;;;;;;10332854;28;93346;-69
2023/07/10 15:09:33;;;;;;;;;;;25.00;57.20;;;;;;10332380;28;94478;-69
2023/07/10 15:14:35;;;;;;;;;;;25.00;56.90;;;;;;10329984;28;97177;-70
2023/07/10 15:19:37;;;;;;;;;;;25.00;56.70;;;;;;10331333;28;94461;-70
2023/07/10 15:24:42;;;;;;;;;;;25.00;56.50;;;;;;10331849;28;94533;-70
2023/07/10 15:29:43;;;;;;;;;;;25.00;56.40;;;;;;10331836;28;93896;-70
2023/07/10 15:34:48;;;;;;;;;;;25.00;56.10;;;;;;10331667;28;93930;-70
2023/07/10 15:39:50;;;;;;;;;;;25.00;56.10;;;;;;10330571;28;94796;-70
2023/07/10 15:44:52;;;;;;;;;;;25.00;56.00;;;;;;10331778;28;94679;-70
2023/07/10 15:49:54;;;;;;;;;;;25.00;56.10;;;;;;10331194;28;92266;-69
2023/07/10 15:55:00;;;;;;;;;;;25.00;56.10;;;;;;10329965;28;94544;-70
2023/07/10 16:00:05;;;;;;;;;;;25.00;56.00;;;;;;10330766;28;93566;-69
2023/07/10 16:05:20;;;;;;;;;;;25.00;55.90;;;;;;10327427;28;95632;-69
2023/07/10 16:10:22;;;;;;;;;;;25.00;55.80;;;;;;10329583;28;93639;-69
2023/07/10 16:15:28;;;;;;;;;;;25.00;55.70;;;;;;10328906;28;94587;-69
2023/07/10 16:20:30;;;;;;;;;;;25.00;55.80;;;;;;10312775;28;94514;-69
2023/07/10 16:25:31;;;;;;;;;;;25.00;55.80;;;;;;10313009;28;93620;-70
2023/07/10 16:30:33;;;;;;;;;;;25.00;55.70;;;;;;10330100;28;94627;-69
2023/07/10 16:35:35;;;;;;;;;;;25.00;55.80;;;;;;10328189;28;93717;-69
2023/07/10 16:40:37;;;;;;;;;;;25.00;55.60;;;;;;10311678;28;92791;-69
2023/07/10 16:45:42;;;;;;;;;;;25.00;55.40;;;;;;10329807;28;94482;-68
2023/07/10 16:50:44;;;;;;;;;;;25.00;55.60;;;;;;10328845;28;94459;-69
2023/07/10 16:55:46;;;;;;;;;;;25.00;55.40;;;;;;10326643;28;97072;-64
2023/07/10 17:00:48;;;;;;;;;;;25.00;55.60;;;;;;10328946;28;93519;-64
2023/07/10 17:05:50;;;;;;;;;;;25.10;55.50;;;;;;10328652;28;94285;-60
2023/07/10 17:10:52;;;;;;;;;;;25.10;55.50;;;;;;10328577;28;95370;-64
2023/07/10 17:15:56;;;;;;;;;;;25.10;55.30;;;;;;10328915;28;94496;-63
2023/07/10 17:21:00;;;;;;;;;;;25.20;55.30;;;;;;10328713;28;93414;-64
2023/07/10 17:26:02;;;;;;;;;;;25.30;55.10;;;;;;10327421;28;92774;-64
2023/07/10 17:31:13;;;;;;;;;;;25.30;55.00;;;;;;10328478;28;93686;-64
2023/07/10 17:36:15;;;;;;;;;;;25.40;54.80;;;;;;10310451;28;94764;-64
2023/07/10 17:41:18;;;;;;;;;;;25.40;54.60;;;;;;10326293;28;93514;-64
2023/07/10 17:46:20;;;;;;;;;;;25.40;54.50;;;;;;10331451;28;96654;-69
2023/07/10 17:51:22;;;;;;;;;;;25.50;54.50;;;;;;10335356;28;94170;-70
2023/07/10 17:56:24;;;;;;;;;;;25.50;54.50;;;;;;10334382;28;92834;-70
2023/07/10 18:01:28;;;;;;;;;;;25.50;54.30;;;;;;10335112;28;94423;-70
2023/07/10 18:06:30;;;;;;;;;;;25.50;54.20;;;;;;10334637;28;94813;-70
2023/07/10 18:11:32;;;;;;;;;;;25.60;54.20;;;;;;10317280;28;93296;-69
2023/07/10 18:16:34;;;;;;;;;;;25.60;54.00;;;;;;10334197;28;94590;-69
2023/07/10 18:21:36;;;;;;;;;;;25.60;53.90;;;;;;10334457;28;92210;-69
2023/07/10 18:26:37;;;;;;;;;;;25.50;53.80;;;;;;10333136;28;94620;-69
2023/07/10 18:31:39;;;;;;;;;;;25.50;53.90;;;;;;10334467;28;94452;-69
2023/07/10 18:36:41;;;;;;;;;;;25.50;54.00;;;;;;10330685;28;95726;-70
2023/07/10 18:41:43;;;;;;;;;;;25.50;53.80;;;;;;10331962;28;93674;-69
2023/07/10 18:46:45;;;;;;;;;;;25.50;53.80;;;;;;10333324;28;94534;-69
2023/07/10 18:51:48;;;;;;;;;;;25.40;53.70;;;;;;10331982;28;94174;-69
2023/07/10 18:56:50;;;;;;;;;;;25.40;53.80;;;;;;10332971;28;93451;-69
2023/07/10 19:01:52;;;;;;;;;;;25.40;53.70;;;;;;10332317;28;94663;-69
2023/07/10 19:06:56;;;;;;;;;;;25.30;53.70;;;;;;10332927;28;94951;-70
2023/07/10 19:11:59;;;;;;;;;;;25.30;53.60;;;;;;10332787;28;93771;-70
2023/07/10 19:17:00;;;;;;;;;;;25.30;53.70;;;;;;10331741;28;94664;-70
2023/07/10 19:22:02;;;;;;;;;;;25.30;53.70;;;;;;10331793;28;94529;-69
2023/07/10 19:27:04;;;;;;;;;;;25.30;53.90;;;;;;10310188;28;96536;-69
2023/07/10 19:32:10;;;;;;;;;;;25.20;53.70;;;;;;10331159;28;93507;-70
2023/07/10 19:37:12;;;;;;;;;;;25.20;53.70;;;;;;10331389;28;94476;-70
2023/07/10 19:42:14;;;;;;;;;;;25.20;53.70;;;;;;10331241;28;94475;-68
2023/07/10 19:47:16;;;;;;;;;;;25.10;53.60;;;;;;10332500;28;93708;-69
2023/07/10 19:52:18;;;;;;;;;;;25.20;53.80;;;;;;10331408;28;93715;-70
2023/07/10 19:57:24;;;;;;;;;;;25.10;53.80;;;;;;10332151;28;94201;-69
2023/07/10 20:02:26;;;;;;;;;;;25.10;53.80;;;;;;10314502;28;93931;-69
2023/07/10 20:07:28;;;;;;;;;;;25.10;53.80;;;;;;10310722;28;93159;-69
2023/07/10 20:12:31;;;;;;;;;;;25.10;53.90;;;;;;10329975;28;94851;-70
2023/07/10 20:17:35;;;;;;;;;;;25.10;53.90;;;;;;10309775;28;96086;-70
2023/07/10 20:22:38;;;;;;;;;;;25.10;53.80;;;;;;10329790;28;93460;-70
2023/07/10 20:27:41;;;;;;;;;;;25.10;54.00;;;;;;10328667;28;93509;-70
2023/07/10 20:32:44;;;;;;;;;;;25.10;54.00;;;;;;10330357;28;94600;-68
2023/07/10 20:37:47;;;;;;;;;;;25.00;54.00;;;;;;10328680;28;93438;-68
2023/07/10 20:42:49;;;;;;;;;;;25.00;54.00;;;;;;10328543;28;93539;-70
2023/07/10 20:47:51;;;;;;;;;;;25.10;54.00;;;;;;10329607;28;94487;-69
2023/07/10 20:52:52;;;;;;;;;;;25.00;54.00;;;;;;10329070;28;93738;-70
2023/07/10 20:57:56;;;;;;;;;;;25.00;54.00;;;;;;10328104;28;93454;-68
2023/07/10 21:02:58;;;;;;;;;;;25.00;53.90;;;;;;10328372;28;93514;-68
2023/07/10 21:08:01;;;;;;;;;;;25.00;53.90;;;;;;10325995;28;97150;-69
2023/07/10 21:13:04;;;;;;;;;;;25.00;53.90;;;;;;10312292;28;93436;-69
2023/07/10 21:18:12;;;;;;;;;;;25.00;53.80;;;;;;10329268;28;94449;-70
2023/07/10 21:23:14;;;;;;;;;;;25.00;53.80;;;;;;10335631;28;93461;-70
2023/07/10 21:28:20;;;;;;;;;;;25.00;53.70;;;;;;10335023;28;92781;-70
2023/07/10 21:33:22;;;;;;;;;;;25.00;53.70;;;;;;10334617;28;93716;-68
2023/07/10 21:38:25;;;;;;;;;;;25.00;53.70;;;;;;10335278;28;94958;-69
2023/07/10 21:43:28;;;;;;;;;;;25.00;53.70;;;;;;10335421;28;92854;-63
2023/07/10 21:48:33;;;;;;;;;;;25.00;53.70;;;;;;10334419;28;94921;-68
2023/07/10 21:53:36;;;;;;;;;;;25.00;53.80;;;;;;10335920;28;93183;-68
2023/07/10 21:58:39;;;;;;;;;;;24.90;53.70;;;;;;10313873;28;96884;-70
2023/07/10 22:03:41;;;;;;;;;;;24.90;53.70;;;;;;10334532;28;93525;-68
2023/07/10 22:08:43;;;;;;;;;;;25.00;53.70;;;;;;10333552;28;92460;-69
2023/07/10 22:13:47;;;;;;;;;;;24.90;54.70;;;;;;10334262;28;93482;-68
2023/07/10 22:18:50;;;;;;;;;;;24.90;53.70;;;;;;10334322;28;94532;-68
2023/07/10 22:23:51;;;;;;;;;;;24.90;53.60;;;;;;10316022;28;93683;-68
2023/07/10 22:28:54;;;;;;;;;;;24.90;53.60;;;;;;10333397;28;92879;-69
2023/07/10 22:33:56;;;;;;;;;;;24.90;53.60;;;;;;10315548;28;93027;-69
2023/07/10 22:38:57;;;;;;;;;;;24.90;53.50;;;;;;10333137;28;94332;-69
2023/07/10 22:44:03;;;;;;;;;;;24.90;53.50;;;;;;10314972;28;94228;-69
2023/07/10 22:49:04;;;;;;;;;;;24.90;53.50;;;;;;10311835;28;96959;-69
2023/07/10 22:54:06;;;;;;;;;;;24.90;53.60;;;;;;10333031;28;93472;-68
2023/07/10 22:59:16;;;;;;;;;;;24.90;53.60;;;;;;10332620;28;93510;-70
2023/07/10 23:04:18;;;;;;;;;;;24.90;53.60;;;;;;10315227;28;94085;-70
2023/07/10 23:09:20;;;;;;;;;;;24.90;53.60;;;;;;10332234;28;94235;-69
2023/07/10 23:14:21;;;;;;;;;;;24.90;53.50;;;;;;10332415;28;93553;-68
2023/07/10 23:19:23;;;;;;;;;;;24.90;53.60;;;;;;10331709;28;94492;-68
2023/07/10 23:24:27;;;;;;;;;;;24.90;53.60;;;;;;10332275;28;93327;-68
2023/07/10 23:29:28;;;;;;;;;;;24.90;53.60;;;;;;10331585;28;93610;-69
2023/07/10 23:34:30;;;;;;;;;;;24.90;54.50;;;;;;10331109;28;93529;-70
2023/07/10 23:39:32;;;;;;;;;;;24.90;53.50;;;;;;10327982;28;96933;-69
2023/07/10 23:44:33;;;;;;;;;;;24.90;53.50;;;;;;10330902;28;92496;-68
2023/07/10 23:49:35;;;;;;;;;;;24.90;53.40;;;;;;10312398;28;92926;-68
2023/07/10 23:54:37;;;;;;;;;;;24.90;53.30;;;;;;10312639;28;94764;-69
2023/07/10 23:59:39;;;;;;;;;;;24.90;53.30;;;;;;10312568;28;94680;-69
